Time;durP1;ratioP1;P1;durP2;ratioP2;P2;SDS_P1;SDS_P2;PMS_P1;PMS_P2;Temp;Humidity;BMP_temperature;BMP_pressure;BME280_temperature;BME280_humidity;BME280_pressure;Samples;Min_cycle;Max_cycle;Signal;HPM_P1;HPM_P2
2023/04/15 00:01:48;;;;;;;3.30;2.90;;;;;;;4.50;100.00;99336.28;5035127;28;20195;-72
2023/04/15 00:04:13;;;;;;;3.57;3.20;;;;;;;4.51;100.00;99340.56;5032833;28;20657;-73
2023/04/15 00:06:39;;;;;;;3.10;2.67;;;;;;;4.52;100.00;99334.59;5036115;28;20207;-72
2023/04/15 00:09:05;;;;;;;3.10;2.73;;;;;;;4.53;100.00;99338.03;5035854;28;20341;-72
2023/04/15 00:11:30;;;;;;;2.90;2.60;;;;;;;4.52;100.00;99337.16;5032131;28;20290;-72
2023/04/15 00:13:56;;;;;;;2.87;2.50;;;;;;;4.47;100.00;99333.72;5040492;28;20188;-72
2023/04/15 00:16:21;;;;;;;2.47;2.27;;;;;;;4.41;100.00;99333.72;5038806;28;20207;-72
2023/04/15 00:18:46;;;;;;;2.10;1.90;;;;;;;4.37;100.00;99329.44;5034238;28;20287;-73
2023/04/15 00:21:12;;;;;;;2.87;2.13;;;;;;;4.31;100.00;99329.47;5058130;28;20241;-73
2023/04/15 00:23:37;;;;;;;2.90;2.20;;;;;;;4.28;100.00;99330.28;5055596;28;20651;-72
2023/04/15 00:26:02;;;;;;;2.90;2.10;;;;;;;4.24;100.00;99326.88;5032124;28;20226;-72
2023/04/15 00:28:28;;;;;;;2.97;2.20;;;;;;;4.22;100.00;99333.72;5039577;28;20203;-72
2023/04/15 00:30:53;;;;;;;2.97;2.30;;;;;;;4.19;100.00;99328.56;5029208;28;21046;-71
2023/04/15 00:33:19;;;;;;;3.03;2.43;;;;;;;4.18;100.00;99326.03;5032477;28;20188;-72
2023/04/15 00:35:44;;;;;;;2.70;2.40;;;;;;;4.17;100.00;99325.16;5038309;28;20202;-72
2023/04/15 00:38:10;;;;;;;4.50;2.80;;;;;;;4.17;100.00;99322.59;5038054;28;20186;-72
2023/04/15 00:40:36;;;;;;;2.80;2.50;;;;;;;4.20;100.00;99314.91;5035676;28;20568;-72
2023/04/15 00:43:01;;;;;;;2.50;2.30;;;;;;;4.19;100.00;99318.34;5041808;28;20761;-72
2023/04/15 00:45:27;;;;;;;3.80;2.57;;;;;;;4.20;100.00;99320.03;5033211;28;20211;-72
2023/04/15 00:47:53;;;;;;;2.80;2.37;;;;;;;4.23;100.00;99324.34;5031033;28;21103;-72
2023/04/15 00:50:18;;;;;;;3.33;2.53;;;;;;;4.23;100.00;99321.78;5031107;28;20179;-72
2023/04/15 00:52:43;;;;;;;2.53;2.33;;;;;;;4.25;100.00;99322.59;5031866;28;20800;-72
2023/04/15 00:55:10;;;;;;;2.67;2.40;;;;;;;4.27;100.00;99323.47;5033979;28;20214;-70
2023/04/15 00:57:35;;;;;;;2.57;2.30;;;;;;;4.29;100.00;99326.03;5027315;28;20313;-72
2023/04/15 01:00:03;;;;;;;2.70;2.50;;;;;;;4.29;100.00;99323.47;5028434;28;20171;-71
2023/04/15 01:02:30;;;;;;;2.63;2.23;;;;;;;4.32;100.00;99316.66;5033272;28;20198;-71
2023/04/15 01:04:56;;;;;;;2.23;2.03;;;;;;;4.33;100.00;99326.03;5027872;28;20245;-71
2023/04/15 01:07:21;;;;;;;1.73;1.63;;;;;;;4.34;100.00;99314.06;5031831;28;20184;-71
2023/04/15 01:09:46;;;;;;;2.70;2.00;;;;;;;4.33;100.00;99320.91;5030658;28;20223;-72
2023/04/15 01:12:14;;;;;;;2.57;2.10;;;;;;;4.31;100.00;99320.06;5030382;28;20716;-71
2023/04/15 01:14:40;;;;;;;2.20;1.97;;;;;;;4.29;100.00;99319.19;5035205;28;20203;-71
2023/04/15 01:17:06;;;;;;;2.80;2.00;;;;;;;4.27;100.00;99316.66;5031134;28;20236;-71
2023/04/15 01:19:31;;;;;;;2.50;2.20;;;;;;;4.29;100.00;99316.63;5026780;28;20172;-71
2023/04/15 01:21:57;;;;;;;2.27;2.07;;;;;;;4.32;100.00;99318.34;5034805;28;20183;-70
2023/04/15 01:24:24;;;;;;;3.07;2.00;;;;;;;4.37;100.00;99314.09;5035435;28;20715;-72
2023/04/15 01:26:50;;;;;;;3.17;2.30;;;;;;;4.40;100.00;99320.06;5029287;28;20314;-73
2023/04/15 01:29:17;;;;;;;2.73;2.27;;;;;;;4.42;100.00;99314.94;5028969;28;20684;-73
2023/04/15 01:31:53;;;;;;;2.23;2.03;;;;;;;4.43;100.00;99314.09;5032634;28;20179;-72
2023/04/15 01:34:19;;;;;;;2.53;2.00;;;;;;;4.42;100.00;99314.94;5034141;28;20178;-71
2023/04/15 01:36:45;;;;;;;3.70;2.10;;;;;;;4.40;100.00;99311.53;5030547;28;20301;-72
2023/04/15 01:39:11;;;;;;;2.47;1.90;;;;;;;4.37;100.00;99320.06;5034519;28;20697;-71
2023/04/15 01:41:36;;;;;;;2.33;2.00;;;;;;;4.33;100.00;99317.50;5034516;28;20594;-72
2023/04/15 01:44:02;;;;;;;3.43;2.20;;;;;;;4.27;100.00;99314.09;5038627;28;20192;-72
2023/04/15 01:46:27;;;;;;;2.20;1.83;;;;;;;4.23;100.00;99316.66;5040499;28;20234;-72
2023/04/15 01:48:52;;;;;;;2.37;2.07;;;;;;;4.17;100.00;99306.38;5040269;28;20203;-72
2023/04/15 01:51:18;;;;;;;2.77;2.10;;;;;;;4.11;100.00;99315.75;5025699;28;20211;-71
2023/04/15 01:53:43;;;;;;;2.43;2.23;;;;;;;4.05;100.00;99307.22;5034514;28;20268;-71
2023/04/15 01:56:08;;;;;;;2.13;1.90;;;;;;;3.99;100.00;99307.22;5038935;28;20676;-72
2023/04/15 01:58:34;;;;;;;2.20;1.83;;;;;;;3.90;100.00;99316.56;5027871;28;20192;-72
2023/04/15 02:01:01;;;;;;;2.70;2.00;;;;;;;3.85;100.00;99327.66;5026587;28;20230;-70
2023/04/15 02:03:28;;;;;;;2.57;2.17;;;;;;;3.81;100.00;99334.47;5031029;28;20187;-71
2023/04/15 02:05:53;;;;;;;2.57;2.17;;;;;;;3.76;100.00;99331.03;5036164;28;20223;-72
2023/04/15 02:08:19;;;;;;;2.27;2.07;;;;;;;3.73;100.00;99325.91;5032786;28;20573;-72
2023/04/15 02:10:44;;;;;;;2.20;2.00;;;;;;;3.67;100.00;99331.84;5035609;28;20179;-71
2023/04/15 02:13:09;;;;;;;2.40;2.10;;;;;;;3.61;100.00;99329.28;5032590;28;20223;-72
2023/04/15 02:15:35;;;;;;;2.30;2.10;;;;;;;3.60;100.00;99330.13;5024027;28;20211;-72
2023/04/15 02:18:01;;;;;;;2.17;2.03;;;;;;;3.58;100.00;99329.28;5028169;28;20271;-71
2023/04/15 02:20:27;;;;;;;4.27;2.50;;;;;;;3.54;100.00;99330.09;5030531;28;20183;-72
2023/04/15 02:22:52;;;;;;;3.40;2.50;;;;;;;3.48;100.00;99334.31;5031579;28;20175;-73
2023/04/15 02:25:19;;;;;;;2.60;2.40;;;;;;;3.45;100.00;99336.91;5039812;28;20760;-72
2023/04/15 02:27:44;;;;;;;2.83;2.57;;;;;;;3.42;100.00;99336.00;5036494;28;20595;-72
2023/04/15 02:30:10;;;;;;;2.93;2.73;;;;;;;3.40;100.00;99338.56;5025759;28;20629;-72
2023/04/15 02:32:36;;;;;;;3.20;2.53;;;;;;;3.42;100.00;99330.88;5029298;28;20246;-72
2023/04/15 02:35:07;;;;;;;2.43;2.23;;;;;;;3.41;100.00;99324.06;5032109;28;20195;-72
2023/04/15 02:37:39;;;;;;;2.43;2.23;;;;;;;3.42;100.00;99330.88;5037110;28;20171;-72
2023/04/15 02:40:10;;;;;;;2.87;2.57;;;;;;;3.41;100.00;99337.72;5029277;28;20175;-73
2023/04/15 02:42:36;;;;;;;3.13;2.60;;;;;;;3.38;100.00;99330.03;5030831;28;20244;-71
2023/04/15 02:45:01;;;;;;;3.37;2.40;;;;;;;3.37;100.00;99333.44;5035541;28;20211;-72
2023/04/15 02:47:27;;;;;;;3.00;2.67;;;;;;;3.35;100.00;99333.44;5033371;28;20190;-72
2023/04/15 02:49:52;;;;;;;2.60;2.40;;;;;;;3.31;100.00;99336.81;5025311;28;21216;-72
2023/04/15 02:52:17;;;;;;;2.70;2.50;;;;;;;3.32;100.00;99333.41;5047446;28;20206;-72
2023/04/15 02:54:43;;;;;;;2.47;2.00;;;;;;;3.32;100.00;99330.00;5027912;28;20204;-72
2023/04/15 02:57:09;;;;;;;2.63;2.43;;;;;;;3.32;100.00;99338.53;5029785;28;20215;-72
2023/04/15 02:59:35;;;;;;;2.60;2.40;;;;;;;3.30;100.00;99335.09;5033392;28;20179;-73
2023/04/15 03:02:00;;;;;;;2.50;2.30;;;;;;;3.24;100.00;99332.53;5026245;28;20573;-71
2023/04/15 03:04:28;;;;;;;2.97;2.40;;;;;;;3.18;100.00;99337.59;5035122;28;20306;-72
2023/04/15 03:06:54;;;;;;;2.53;2.30;;;;;;;3.12;100.00;99338.41;5026371;28;20205;-71
2023/04/15 03:09:19;;;;;;;2.80;2.40;;;;;;;3.08;100.00;99330.72;5031730;28;20731;-72
2023/04/15 03:11:44;;;;;;;2.40;2.20;;;;;;;3.04;100.00;99340.94;5036248;28;20212;-73
2023/04/15 03:14:10;;;;;;;3.33;2.17;;;;;;;3.04;100.00;99345.16;5031894;28;20278;-72
2023/04/15 03:16:35;;;;;;;2.33;2.13;;;;;;;3.02;100.00;99342.63;5032173;28;20220;-72
2023/04/15 03:19:00;;;;;;;2.53;2.33;;;;;;;2.98;100.00;99346.00;5042543;28;20240;-72
2023/04/15 03:21:26;;;;;;;3.03;2.33;;;;;;;2.96;100.00;99346.84;5036698;28;20194;-72
2023/04/15 03:23:51;;;;;;;2.33;2.13;;;;;;;2.92;100.00;99343.41;5037697;28;20600;-72
2023/04/15 03:26:28;;;;;;;2.20;1.93;;;;;;;2.87;100.00;99343.34;5041689;28;20217;-72
2023/04/15 03:28:53;;;;;;;2.47;2.03;;;;;;;2.82;100.00;99339.94;5040865;28;20454;-71
2023/04/15 03:31:19;;;;;;;2.50;2.23;;;;;;;2.78;100.00;99343.28;5036683;28;20191;-73
2023/04/15 03:33:44;;;;;;;2.07;1.90;;;;;;;2.74;100.00;99337.31;5031064;28;20664;-73
2023/04/15 03:36:09;;;;;;;2.50;2.30;;;;;;;2.73;100.00;99337.28;5035016;28;20215;-72
2023/04/15 03:38:35;;;;;;;3.03;2.17;;;;;;;2.71;100.00;99336.44;5038975;28;20221;-73
2023/04/15 03:41:00;;;;;;;5.53;2.57;;;;;;;2.70;100.00;99335.56;5036715;28;20687;-72
2023/04/15 03:43:26;;;;;;;3.57;2.50;;;;;;;2.67;100.00;99340.66;5029422;28;20191;-71
2023/04/15 03:45:51;;;;;;;3.40;2.33;;;;;;;2.65;100.00;99336.38;5027562;28;20719;-72
2023/04/15 03:48:16;;;;;;;2.47;2.27;;;;;;;2.62;100.00;99341.47;5028887;28;20415;-72
2023/04/15 03:50:42;;;;;;;4.60;2.50;;;;;;;2.57;100.00;99344.81;5036616;28;20198;-72
2023/04/15 03:53:07;;;;;;;2.17;1.97;;;;;;;2.55;100.00;99338.00;5036723;28;20388;-71
2023/04/15 03:55:32;;;;;;;4.13;2.40;;;;;;;2.54;100.00;99343.97;5037619;28;20699;-72
2023/04/15 03:57:57;;;;;;;3.60;2.50;;;;;;;2.51;100.00;99339.69;5057320;28;20194;-71
2023/04/15 04:00:23;;;;;;;2.73;2.47;;;;;;;2.47;100.00;99343.03;5030618;28;20192;-73
2023/04/15 04:02:48;;;;;;;2.77;2.40;;;;;;;2.43;100.00;99342.16;5033654;28;20195;-72
2023/04/15 04:05:14;;;;;;;2.60;2.17;;;;;;;2.40;100.00;99341.28;5034813;28;20219;-71
2023/04/15 04:07:39;;;;;;;3.53;2.60;;;;;;;2.38;100.00;99345.53;5033896;28;20194;-72
2023/04/15 04:10:05;;;;;;;3.90;3.03;;;;;;;2.35;100.00;99337.84;5032256;28;20690;-71
2023/04/15 04:12:31;;;;;;;3.67;2.93;;;;;;;2.33;100.00;99348.06;5033430;28;20238;-71
2023/04/15 04:14:56;;;;;;;3.47;2.83;;;;;;;2.29;100.00;99348.84;5033250;28;20699;-73
2023/04/15 04:17:21;;;;;;;3.57;2.73;;;;;;;2.26;100.00;99352.25;5033356;28;20191;-71
2023/04/15 04:19:47;;;;;;;3.63;2.80;;;;;;;2.26;100.00;99352.25;5032047;28;20195;-72
2023/04/15 04:22:12;;;;;;;3.20;2.60;;;;;;;2.25;100.00;99353.09;5031377;28;20266;-71
2023/04/15 04:24:37;;;;;;;3.30;2.30;;;;;;;2.26;100.00;99352.25;5032296;28;20663;-72
2023/04/15 04:27:03;;;;;;;2.87;2.53;;;;;;;2.28;100.00;99350.53;5030699;28;20183;-72
2023/04/15 04:29:28;;;;;;;5.23;2.70;;;;;;;2.32;100.00;99348.88;5032916;28;20199;-71
2023/04/15 04:31:53;;;;;;;2.83;2.60;;;;;;;2.36;100.00;99353.16;5031559;28;20683;-72
2023/04/15 04:34:19;;;;;;;3.73;2.60;;;;;;;2.39;100.00;99342.13;5042807;28;20197;-70
2023/04/15 04:36:44;;;;;;;3.73;2.73;;;;;;;2.39;100.00;99348.09;5032151;28;20318;-72
2023/04/15 04:39:09;;;;;;;3.43;2.10;;;;;;;2.41;100.00;99358.34;5035160;28;20187;-72
2023/04/15 04:41:35;;;;;;;2.67;2.43;;;;;;;2.39;100.00;99358.31;5037285;28;20190;-73
2023/04/15 04:44:00;;;;;;;2.27;2.07;;;;;;;2.40;100.00;99361.72;5035218;28;20277;-72
2023/04/15 04:46:26;;;;;;;3.30;2.37;;;;;;;2.42;100.00;99362.59;5029387;28;20742;-72
2023/04/15 04:48:51;;;;;;;4.33;3.00;;;;;;;2.43;100.00;99356.63;5032392;28;20253;-72
2023/04/15 04:51:18;;;;;;;3.13;2.53;;;;;;;2.47;100.00;99362.63;5038618;28;20240;-72
2023/04/15 04:53:43;;;;;;;2.77;2.47;;;;;;;2.52;100.00;99363.50;5045108;28;20225;-72
2023/04/15 04:56:08;;;;;;;3.70;2.20;;;;;;;2.54;100.00;99369.50;5025409;28;20297;-74
2023/04/15 04:58:34;;;;;;;4.40;2.80;;;;;;;2.58;100.00;99368.69;5037277;28;21692;-74
2023/04/15 05:00:59;;;;;;;3.90;2.80;;;;;;;2.61;100.00;99365.28;5027872;28;20595;-75
2023/04/15 05:03:25;;;;;;;6.23;3.30;;;;;;;2.64;100.00;99367.88;5030957;28;20187;-73
2023/04/15 05:05:50;;;;;;;4.00;3.07;;;;;;;2.70;100.00;99370.50;5033513;28;20206;-72
2023/04/15 05:08:15;;;;;;;3.00;2.70;;;;;;;2.78;100.00;99368.00;5038792;28;20643;-71
2023/04/15 05:10:41;;;;;;;2.93;2.53;;;;;;;2.86;100.00;99369.78;5033896;28;20640;-72
2023/04/15 05:13:06;;;;;;;2.73;2.53;;;;;;;3.00;100.00;99374.13;5032042;28;20195;-72
2023/04/15 05:15:33;;;;;;;3.03;2.47;;;;;;;3.18;100.00;99371.69;5028298;28;20311;-72
2023/04/15 05:17:59;;;;;;;4.27;3.03;;;;;;;3.47;100.00;99375.25;5033433;28;20678;-72
2023/04/15 05:20:24;;;;;;;3.27;2.83;;;;;;;3.71;100.00;99382.19;5038411;28;20192;-71
2023/04/15 05:22:50;;;;;;;3.67;2.77;;;;;;;4.01;100.00;99379.78;5030129;28;20258;-72
2023/04/15 05:25:15;;;;;;;5.30;2.70;;;;;;;4.35;100.00;99380.69;5033189;28;20651;-72
2023/04/15 05:27:41;;;;;;;4.70;2.70;;;;;;;4.60;100.00;99375.59;5034864;28;20178;-71
2023/04/15 05:30:07;;;;;;;3.37;2.50;;;;;;;4.72;100.00;99377.31;5030506;28;20226;-71
2023/04/15 05:32:33;;;;;;;2.70;2.20;;;;;;;4.89;100.00;99382.44;5032384;28;20836;-72
2023/04/15 05:34:58;;;;;;;2.57;2.20;;;;;;;5.10;100.00;99390.97;5030456;28;20202;-70
2023/04/15 05:37:23;;;;;;;3.57;2.33;;;;;;;5.36;100.00;99385.81;5029776;28;20190;-72
2023/04/15 05:39:49;;;;;;;3.93;2.40;;;;;;;5.82;100.00;99389.09;5034878;28;20558;-71
2023/04/15 05:42:14;;;;;;;2.70;2.50;;;;;;;6.62;100.00;99383.50;5035013;28;20200;-71
2023/04/15 05:44:39;;;;;;;3.40;2.67;;;;;;;7.59;98.13;99384.34;5033419;28;20271;-71
2023/04/15 05:47:06;;;;;;;2.70;2.50;;;;;;;8.51;94.69;99388.31;5029905;28;20227;-72
2023/04/15 05:49:32;;;;;;;2.40;2.20;;;;;;;9.32;91.73;99387.00;5042724;28;20255;-72
2023/04/15 05:51:57;;;;;;;3.50;2.60;;;;;;;10.01;89.18;99383.06;5031063;28;20685;-70
2023/04/15 05:54:22;;;;;;;3.10;2.77;;;;;;;10.46;87.33;99392.44;5036259;28;20243;-71
2023/04/15 05:56:48;;;;;;;3.03;2.80;;;;;;;10.70;86.39;99390.19;5038538;28;20192;-72
2023/04/15 05:59:13;;;;;;;3.50;2.90;;;;;;;11.03;85.44;99391.97;5044704;28;20537;-72
2023/04/15 06:01:39;;;;;;;3.83;2.93;;;;;;;11.41;84.08;99392.72;5033828;28;20197;-71
2023/04/15 06:04:04;;;;;;;3.40;3.10;;;;;;;11.66;83.15;99392.03;5036700;28;20254;-72
2023/04/15 06:06:31;;;;;;;3.30;3.00;;;;;;;11.95;82.32;99391.19;5044817;28;20632;-72
2023/04/15 06:08:57;;;;;;;4.20;3.00;;;;;;;12.40;81.01;99389.06;5043886;28;20579;-71
2023/04/15 06:11:22;;;;;;;3.77;3.00;;;;;;;12.75;79.78;99389.69;5042609;28;20974;-72
2023/04/15 06:13:48;;;;;;;3.50;3.20;;;;;;;12.91;78.88;99390.06;5035856;28;20283;-71
2023/04/15 06:16:13;;;;;;;4.27;3.00;;;;;;;12.87;78.98;99393.63;5045417;28;20218;-72
2023/04/15 06:18:38;;;;;;;3.60;2.70;;;;;;;13.01;78.45;99391.44;5038403;28;20177;-73
2023/04/15 06:21:04;;;;;;;3.47;3.17;;;;;;;13.37;77.69;99398.88;5030506;28;20265;-72
2023/04/15 06:23:30;;;;;;;3.67;3.20;;;;;;;13.77;76.44;99394.03;5039849;28;20285;-71
2023/04/15 06:25:55;;;;;;;4.37;3.87;;;;;;;14.05;75.51;99398.22;5053103;28;20211;-73
2023/04/15 06:28:20;;;;;;;4.30;3.90;;;;;;;14.18;74.36;99393.38;5034027;28;20193;-72
2023/04/15 06:30:46;;;;;;;10.07;9.17;;;;;;;14.35;74.23;99389.28;5037307;28;20771;-73
2023/04/15 06:33:11;;;;;;;6.40;5.80;;;;;;;14.68;73.54;99388.88;5032740;28;20646;-73
2023/04/15 06:35:36;;;;;;;5.13;4.60;;;;;;;15.08;72.31;99387.22;5035257;28;20302;-72
2023/04/15 06:38:01;;;;;;;5.00;4.03;;;;;;;15.51;70.77;99389.75;5035046;28;20199;-70
2023/04/15 06:40:27;;;;;;;5.87;4.43;;;;;;;15.53;69.60;99388.78;5031059;28;20196;-71
2023/04/15 06:42:52;;;;;;;5.67;4.33;;;;;;;15.08;69.69;99389.84;5026083;28;20274;-71
2023/04/15 06:45:18;;;;;;;5.10;3.87;;;;;;;14.60;70.37;99400.41;5033620;28;20337;-73
2023/04/15 06:47:43;;;;;;;4.30;3.90;;;;;;;14.02;71.12;99401.78;5035515;28;20235;-72
2023/04/15 06:50:09;;;;;;;4.17;3.57;;;;;;;13.56;72.31;99406.03;5028863;28;20220;-71
2023/04/15 06:52:35;;;;;;;3.93;3.57;;;;;;;13.27;73.18;99397.47;5032153;28;20220;-72
2023/04/15 06:55:01;;;;;;;4.87;4.10;;;;;;;13.09;73.48;99392.00;5028213;28;20211;-72
2023/04/15 06:57:27;;;;;;;5.10;4.50;;;;;;;12.90;73.98;99394.38;5032803;28;20183;-71
2023/04/15 06:59:53;;;;;;;5.50;4.07;;;;;;;12.64;74.28;99397.81;5028502;28;20210;-73
2023/04/15 07:02:19;;;;;;;4.53;3.90;;;;;;;12.38;75.22;99398.66;5032549;28;20236;-74
2023/04/15 07:04:44;;;;;;;4.30;3.90;;;;;;;12.13;75.99;99401.97;5037186;28;20208;-72
2023/04/15 07:07:10;;;;;;;4.73;3.60;;;;;;;11.90;76.84;99398.28;5033080;28;20197;-74
2023/04/15 07:09:35;;;;;;;4.10;3.60;;;;;;;11.64;77.43;99399.88;5038440;28;20211;-73
2023/04/15 07:12:00;;;;;;;4.13;3.57;;;;;;;11.47;78.20;99396.88;5034950;28;20213;-73
2023/04/15 07:14:26;;;;;;;4.00;3.53;;;;;;;11.40;79.07;99399.63;5026663;28;20212;-73
2023/04/15 07:16:52;;;;;;;4.10;3.70;;;;;;;11.35;79.63;99400.66;5032820;28;20245;-74
2023/04/15 07:19:17;;;;;;;6.03;3.43;;;;;;;11.30;80.00;99395.59;5033330;28;20328;-73
2023/04/15 07:21:42;;;;;;;4.07;3.20;;;;;;;11.21;79.24;99398.41;5041667;28;20262;-71
2023/04/15 07:24:09;;;;;;;3.93;3.40;;;;;;;11.05;78.73;99393.63;5024738;28;20604;-74
2023/04/15 07:26:34;;;;;;;4.00;3.00;;;;;;;11.05;78.85;99390.19;5025686;28;21013;-74
2023/04/15 07:29:00;;;;;;;2.77;2.57;;;;;;;11.08;78.52;99392.72;5037499;28;20222;-74
2023/04/15 07:31:26;;;;;;;3.40;3.10;;;;;;;11.10;77.91;99396.13;5032142;28;20214;-74
2023/04/15 07:33:52;;;;;;;3.93;2.97;;;;;;;11.05;77.34;99396.22;5031544;28;20968;-73
2023/04/15 07:36:17;;;;;;;3.43;2.90;;;;;;;11.04;77.59;99394.50;5032931;28;20224;-74
2023/04/15 07:38:43;;;;;;;4.80;3.13;;;;;;;11.06;77.41;99397.91;5025751;28;20183;-74
2023/04/15 07:41:09;;;;;;;4.13;3.43;;;;;;;11.02;77.83;99398.91;5027280;28;20332;-74
2023/04/15 07:43:34;;;;;;;4.37;3.27;;;;;;;11.01;78.17;99404.09;5029167;28;22245;-73
2023/04/15 07:46:00;;;;;;;6.33;3.07;;;;;;;11.06;78.48;99399.66;5029272;28;20207;-71
2023/04/15 07:48:25;;;;;;;4.67;2.93;;;;;;;11.15;78.68;99404.59;5036204;28;20226;-72
2023/04/15 07:50:50;;;;;;;3.20;2.87;;;;;;;11.32;78.67;99403.31;5021421;28;20245;-72
2023/04/15 07:53:16;;;;;;;3.10;2.80;;;;;;;11.41;78.40;99410.84;5027942;28;20610;-72
2023/04/15 07:55:41;;;;;;;2.50;2.30;;;;;;;11.44;77.82;99414.22;5025657;28;20217;-72
2023/04/15 07:58:06;;;;;;;3.23;2.80;;;;;;;11.56;77.75;99413.03;5035798;28;20261;-70
2023/04/15 08:00:32;;;;;;;5.27;3.30;;;;;;;11.64;77.41;99414.56;5027110;28;20354;-71
2023/04/15 08:02:58;;;;;;;4.17;2.47;;;;;;;11.65;76.95;99419.69;5044542;28;20943;-72
2023/04/15 08:05:24;;;;;;;3.77;2.93;;;;;;;11.65;76.54;99416.25;5043296;28;20328;-71
2023/04/15 08:07:50;;;;;;;3.47;2.33;;;;;;;11.69;76.16;99416.13;5032265;28;20187;-71
2023/04/15 08:10:16;;;;;;;4.97;3.00;;;;;;;11.72;75.48;99418.63;5028814;28;20710;-73
2023/04/15 08:12:41;;;;;;;3.87;2.77;;;;;;;11.75;74.87;99412.50;5031225;28;20970;-72
2023/04/15 08:15:08;;;;;;;3.10;2.80;;;;;;;11.68;74.17;99416.19;5024272;28;20216;-72
2023/04/15 08:17:33;;;;;;;3.77;2.47;;;;;;;11.73;74.32;99417.75;5030237;28;20916;-70
2023/04/15 08:19:59;;;;;;;4.13;2.90;;;;;;;11.80;74.26;99422.78;5027874;28;20188;-72
2023/04/15 08:22:24;;;;;;;4.63;2.80;;;;;;;11.89;74.13;99423.34;5028971;28;20183;-72
2023/04/15 08:24:50;;;;;;;5.57;2.90;;;;;;;12.07;74.16;99425.50;5030405;28;20212;-73
2023/04/15 08:27:16;;;;;;;3.43;2.40;;;;;;;12.25;74.27;99429.28;5027762;28;20194;-72
2023/04/15 08:29:41;;;;;;;3.37;2.83;;;;;;;12.39;73.65;99421.09;5027115;28;20226;-71
2023/04/15 08:32:08;;;;;;;3.00;2.47;;;;;;;12.53;73.34;99431.03;5026674;28;20570;-71
2023/04/15 08:34:34;;;;;;;3.00;2.70;;;;;;;12.76;73.15;99433.78;5029653;28;20249;-72
2023/04/15 08:36:59;;;;;;;2.93;2.60;;;;;;;12.95;72.75;99430.56;5027754;28;20180;-71
2023/04/15 08:39:25;;;;;;;3.83;2.50;;;;;;;13.17;72.16;99429.88;5031900;28;20189;-72
2023/04/15 08:42:01;;;;;;;2.97;2.67;;;;;;;13.36;71.61;99436.16;5038787;28;20211;-72
2023/04/15 08:44:32;;;;;;;3.50;2.50;;;;;;;13.40;71.35;99437.75;5033131;28;20186;-72
2023/04/15 08:47:01;;;;;;;3.53;2.60;;;;;;;13.54;71.11;99446.84;5035058;28;20187;-71
2023/04/15 08:49:27;;;;;;;4.30;2.90;;;;;;;13.70;70.75;99444.56;5044226;28;20907;-73
2023/04/15 08:51:55;;;;;;;3.10;2.40;;;;;;;13.84;70.48;99437.13;5032222;28;20187;-72
2023/04/15 08:54:21;;;;;;;3.20;2.73;;;;;;;14.08;70.01;99442.31;5037142;28;20191;-72
2023/04/15 08:56:47;;;;;;;6.87;2.70;;;;;;;14.32;69.71;99437.09;5032861;28;20187;-73
2023/04/15 08:59:13;;;;;;;3.90;2.90;;;;;;;14.55;69.74;99432.75;5037356;28;20902;-70
2023/04/15 09:01:39;;;;;;;2.83;2.60;;;;;;;14.73;69.51;99428.63;5036011;28;20205;-72
2023/04/15 09:04:06;;;;;;;3.20;2.90;;;;;;;14.91;69.56;99433.06;5039999;28;20733;-72
2023/04/15 09:06:32;;;;;;;3.10;2.70;;;;;;;15.07;69.26;99429.84;5034470;28;20698;-72
2023/04/15 09:08:57;;;;;;;2.80;2.53;;;;;;;15.14;68.94;99433.91;5027489;28;20337;-72
2023/04/15 09:11:23;;;;;;;3.17;2.73;;;;;;;15.32;69.05;99429.66;5031682;28;20244;-73
2023/04/15 09:13:49;;;;;;;3.30;2.80;;;;;;;15.54;68.54;99428.75;5042686;28;20247;-72
2023/04/15 09:16:14;;;;;;;3.17;2.50;;;;;;;15.72;68.20;99421.88;5032412;28;20222;-71
2023/04/15 09:18:40;;;;;;;3.83;2.43;;;;;;;15.87;67.73;99432.56;5029287;28;20186;-72
2023/04/15 09:21:07;;;;;;;3.40;2.10;;;;;;;16.00;67.14;99434.56;5035839;28;20194;-73
2023/04/15 09:23:34;;;;;;;3.83;2.47;;;;;;;16.08;64.79;99430.75;5034004;28;20899;-72
2023/04/15 09:26:01;;;;;;;3.23;2.17;;;;;;;16.18;64.77;99431.19;5031645;28;20198;-73
2023/04/15 09:28:27;;;;;;;2.90;2.43;;;;;;;16.31;64.77;99437.53;5037244;28;20721;-71
2023/04/15 09:30:59;;;;;;;2.30;1.90;;;;;;;16.46;64.71;99441.22;5034172;28;20181;-73
2023/04/15 09:33:26;;;;;;;4.00;2.63;;;;;;;16.62;64.17;99443.94;5036970;28;20391;-72
2023/04/15 09:36:00;;;;;;;3.23;2.23;;;;;;;16.78;64.06;99438.84;5028220;28;20201;-71
2023/04/15 09:38:26;;;;;;;2.53;2.00;;;;;;;16.98;63.75;99439.63;5032956;28;20189;-73
2023/04/15 09:40:52;;;;;;;3.17;2.10;;;;;;;17.03;62.38;99440.25;5030854;28;20563;-72
2023/04/15 09:43:17;;;;;;;13.37;3.73;;;;;;;17.13;62.68;99446.72;5035323;28;20251;-72
2023/04/15 09:45:49;;;;;;;4.30;2.00;;;;;;;17.34;62.47;99442.19;5030246;28;20212;-72
2023/04/15 09:48:27;;;;;;;3.93;2.10;;;;;;;17.51;62.18;99445.69;5030803;28;20188;-72
2023/04/15 09:50:56;;;;;;;3.10;2.17;;;;;;;17.65;61.54;99452.84;5029076;28;20178;-73
2023/04/15 09:53:24;;;;;;;3.07;2.20;;;;;;;17.70;60.90;99447.38;5030200;28;20276;-72
2023/04/15 09:55:50;;;;;;;3.70;2.27;;;;;;;17.60;60.71;99444.38;5047960;28;20692;-71
2023/04/15 09:58:26;;;;;;;2.77;1.90;;;;;;;17.69;60.86;99451.78;5027641;28;20693;-73
2023/04/15 10:00:53;;;;;;;2.90;2.07;;;;;;;17.89;60.94;99445.50;5032795;28;20724;-72
2023/04/15 10:03:21;;;;;;;1.83;1.70;;;;;;;18.05;60.63;99453.41;5035885;28;20275;-72
2023/04/15 10:05:49;;;;;;;2.67;2.10;;;;;;;18.15;60.28;99456.38;5033702;28;20292;-72
2023/04/15 10:08:16;;;;;;;3.37;2.07;;;;;;;18.25;60.16;99454.09;5034619;28;20604;-71
2023/04/15 10:10:42;;;;;;;2.83;1.87;;;;;;;18.32;59.42;99455.44;5039918;28;20192;-73
2023/04/15 10:13:08;;;;;;;3.80;2.07;;;;;;;18.37;58.99;99455.22;5036136;28;20225;-73
2023/04/15 10:15:36;;;;;;;3.40;2.43;;;;;;;18.30;59.37;99467.81;5034976;28;20230;-71
2023/04/15 10:18:04;;;;;;;4.37;2.87;;;;;;;17.77;59.97;99465.28;5036483;28;20189;-72
2023/04/15 10:20:29;;;;;;;4.50;3.00;;;;;;;17.78;60.15;99472.22;5037238;28;20173;-72
2023/04/15 10:22:55;;;;;;;6.77;3.33;;;;;;;17.52;60.63;99468.31;5026286;28;20183;-73
2023/04/15 10:25:22;;;;;;;3.30;2.57;;;;;;;17.46;61.38;99469.50;5048850;28;20285;-72
2023/04/15 10:27:50;;;;;;;2.73;2.50;;;;;;;17.48;61.36;99469.41;5037545;28;20279;-73
2023/04/15 10:30:17;;;;;;;4.07;2.60;;;;;;;17.60;61.37;99467.94;5028148;28;20469;-72
2023/04/15 10:32:43;;;;;;;3.07;2.17;;;;;;;17.57;61.12;99475.94;5027948;28;20185;-72
2023/04/15 10:35:10;;;;;;;7.37;6.57;;;;;;;17.59;60.95;99471.47;5033912;28;20264;-72
2023/04/15 10:37:37;;;;;;;4.70;3.60;;;;;;;17.67;60.91;99472.78;5031551;28;20298;-72
2023/04/15 10:40:27;;;;;;;4.50;3.07;;;;;;;17.66;60.64;99481.53;5044338;28;20183;-72
2023/04/15 10:42:59;;;;;;;2.87;2.50;;;;;;;17.65;60.87;99471.16;5029115;28;20189;-73
2023/04/15 10:45:27;;;;;;;3.30;2.40;;;;;;;17.69;60.88;99475.31;5037224;28;20218;-72
2023/04/15 10:47:57;;;;;;;3.23;2.57;;;;;;;17.81;60.98;99476.44;5033362;28;20266;-74
2023/04/15 10:50:25;;;;;;;2.63;2.20;;;;;;;18.01;61.12;99478.03;5030097;28;20282;-72
2023/04/15 10:52:51;;;;;;;3.60;2.60;;;;;;;18.27;60.77;99484.50;5030527;28;21558;-72
2023/04/15 10:55:21;;;;;;;3.73;2.67;;;;;;;18.24;60.31;99484.66;5027503;28;20731;-73
2023/04/15 10:57:51;;;;;;;3.10;2.80;;;;;;;18.18;60.10;99476.28;5034152;28;20201;-72
2023/04/15 11:00:19;;;;;;;2.83;2.53;;;;;;;18.20;60.71;99482.31;5031174;28;20178;-71
2023/04/15 11:02:55;;;;;;;3.60;2.77;;;;;;;18.36;60.70;99493.66;5033154;28;20229;-72
2023/04/15 11:05:42;;;;;;;4.37;2.97;;;;;;;18.52;60.98;99477.94;5021592;28;20216;-72
2023/04/15 11:08:11;;;;;;;3.13;2.30;;;;;;;18.54;60.59;99486.53;5029083;28;20222;-71
2023/04/15 11:10:36;;;;;;;4.23;2.90;;;;;;;18.47;60.31;99495.69;5032852;28;20211;-72
2023/04/15 11:13:13;;;;;;;2.93;2.60;;;;;;;18.58;60.55;99487.25;5029406;28;20190;-72
2023/04/15 11:15:41;;;;;;;3.47;2.87;;;;;;;18.67;59.45;99486.72;5036312;28;20210;-71
2023/04/15 11:18:11;;;;;;;4.53;2.60;;;;;;;18.65;58.87;99493.00;5031338;28;20190;-72
2023/04/15 11:20:38;;;;;;;6.23;3.10;;;;;;;18.71;58.90;99492.63;5030262;28;20220;-72
2023/04/15 11:23:04;;;;;;;3.27;2.70;;;;;;;18.84;58.46;99491.00;5028283;28;20210;-71
2023/04/15 11:25:32;;;;;;;6.27;3.60;;;;;;;18.36;56.97;99501.50;5040021;28;20238;-72
2023/04/15 11:27:59;;;;;;;4.20;3.40;;;;;;;18.25;57.30;99499.47;5037146;28;20183;-72
2023/04/15 11:30:26;;;;;;;5.47;3.77;;;;;;;18.06;58.25;99496.97;5032267;28;20289;-72